New Orleans, Louisiana
Traffic Map
Current Weather Conditions
New Orleans, Louisiana
Few Clouds
Few Clouds
75°
Feels Like: 75°
Wind Chill: 75° Ceiling: Unl
Heat Index: 75° Visibility: 10mi
Dew Point: 72° Wind: 5mph
Humidity: 90% Direction: 150° (SSE)
Pressure: 30.07in Gusts: 0mph
Raw Report DataKNEW 300753Z AUTO 15004KT 10SM FEW038 FEW080 24/22 A3007 RMK AO2 SLP175 T02390222
Traffic Incident Summary
Active as of:
Severity:
Category:
InformationThere was an issue retrieving the traffic information for this location. Please try a different location or try again shortly.
Advertisements
Track Severe Weather on mobile